Time,TemperatureF,DewpointF,PressureIn,WindDirection,WindDirectionDegrees,WindSpeedMPH,WindSpeedGustMPH,Humidity,HourlyPrecipIn,Conditions,Clouds,dailyrainin,SoftwareType,DateUTC
2013-06-07 00:01:00,53.8,33.0,30.05,NE,56,0.0,0.0,45,0.00,,---,0.00,VWS V14.01,2013-06-07 07:01:00,
2013-06-07 00:07:00,53.4,32.6,30.05,NE,56,0.0,0.0,45,0.00,,---,0.00,VWS V14.01,2013-06-07 07:07:00,
2013-06-07 00:12:00,52.9,32.1,30.05,NE,56,0.0,0.0,45,0.00,,---,0.00,VWS V14.01,2013-06-07 07:12:00,
2013-06-07 00:18:00,52.5,32.6,30.05,NE,56,0.0,0.0,46,0.00,,---,0.00,VWS V14.01,2013-06-07 07:18:00,
2013-06-07 00:23:00,52.7,32.8,30.02,NE,56,0.0,0.0,46,0.00,,---,0.00,VWS V14.01,2013-06-07 07:23:00,
2013-06-07 00:29:00,52.2,32.3,30.02,NE,56,0.0,0.0,46,0.00,,---,0.00,VWS V14.01,2013-06-07 07:29:00,
2013-06-07 00:34:00,51.8,32.0,30.02,NE,56,0.0,0.0,46,0.00,,---,0.00,VWS V14.01,2013-06-07 07:34:00,
2013-06-07 00:39:00,51.8,32.0,30.02,NE,56,0.0,0.0,46,0.00,,---,0.00,VWS V14.01,2013-06-07 07:39:00,
2013-06-07 00:45:00,51.6,32.6,30.02,ENE,65,0.0,0.0,48,0.00,,---,0.00,VWS V14.01,2013-06-07 07:45:00,
2013-06-07 00:50:00,51.3,33.0,30.02,ENE,65,0.0,0.0,50,0.00,,---,0.00,VWS V14.01,2013-06-07 07:50:00,
2013-06-07 00:55:00,51.1,32.9,30.02,ENE,65,0.0,0.0,50,0.00,,---,0.00,VWS V14.01,2013-06-07 07:55:00,
2013-06-07 01:01:00,50.4,32.2,30.02,ENE,65,0.0,0.0,50,0.00,,---,0.00,VWS V14.01,2013-06-07 08:01:00,
2013-06-07 01:06:00,49.8,32.4,30.02,ENE,65,0.0,0.0,51,0.00,,---,0.00,VWS V14.01,2013-06-07 08:06:00,
2013-06-07 01:11:00,49.6,32.3,30.02,ENE,65,0.0,0.0,51,0.00,,---,0.00,VWS V14.01,2013-06-07 08:11:00,
2013-06-07 01:17:00,49.6,33.0,30.02,ENE,65,0.0,0.0,52,0.00,,---,0.00,VWS V14.01,2013-06-07 08:17:00,
2013-06-07 01:23:00,49.3,33.4,30.02,ENE,65,0.0,0.0,54,0.00,,---,0.00,VWS V14.01,2013-06-07 08:23:00,
2013-06-07 01:29:00,48.7,32.8,30.02,ENE,65,0.0,0.0,54,0.00,,---,0.00,VWS V14.01,2013-06-07 08:29:00,
2013-06-07 01:34:00,48.7,33.5,30.02,ENE,65,0.0,0.0,56,0.00,,---,0.00,VWS V14.01,2013-06-07 08:34:00,
2013-06-07 01:40:00,48.9,33.7,30.02,ENE,65,0.0,0.0,56,0.00,,---,0.00,VWS V14.01,2013-06-07 08:40:00,
2013-06-07 01:45:00,48.9,33.7,30.02,SSE,149,3.6,3.6,56,0.00,,---,0.00,VWS V14.01,2013-06-07 08:45:00,
2013-06-07 01:51:00,49.1,33.9,30.02,ESE,123,0.0,0.0,56,0.00,,---,0.00,VWS V14.01,2013-06-07 08:51:00,
2013-06-07 01:56:00,48.9,33.7,30.02,ENE,75,0.0,2.2,56,0.00,,---,0.00,VWS V14.01,2013-06-07 08:56:00,
2013-06-07 02:02:00,48.2,33.0,30.02,ENE,75,0.0,0.0,56,0.00,,---,0.00,VWS V14.01,2013-06-07 09:02:00,
2013-06-07 02:08:00,48.2,33.0,30.02,ENE,71,0.0,0.0,56,0.00,,---,0.00,VWS V14.01,2013-06-07 09:08:00,
2013-06-07 02:13:00,47.8,33.4,30.02,ENE,71,0.0,0.0,57,0.00,,---,0.00,VWS V14.01,2013-06-07 09:13:00,
2013-06-07 02:19:00,47.3,32.8,30.02,ENE,71,0.0,0.0,57,0.00,,---,0.00,VWS V14.01,2013-06-07 09:19:00,
2013-06-07 02:24:00,47.3,32.8,30.02,SE,143,0.0,0.0,57,0.00,,---,0.00,VWS V14.01,2013-06-07 09:24:00,
2013-06-07 02:29:00,47.5,33.0,30.02,SE,143,0.0,0.0,57,0.00,,---,0.00,VWS V14.01,2013-06-07 09:29:00,
2013-06-07 02:35:00,47.3,32.8,30.02,SE,143,0.0,0.0,57,0.00,,---,0.00,VWS V14.01,2013-06-07 09:35:00,
2013-06-07 02:41:00,46.6,32.2,30.02,North,353,0.0,0.0,57,0.00,,---,0.00,VWS V14.01,2013-06-07 09:41:00,
2013-06-07 02:47:00,46.6,32.2,30.02,North,353,0.0,0.0,57,0.00,,---,0.00,VWS V14.01,2013-06-07 09:47:00,
2013-06-07 02:52:00,46.8,32.3,30.02,North,353,0.0,0.0,57,0.00,,---,0.00,VWS V14.01,2013-06-07 09:52:00,
2013-06-07 02:58:00,46.6,32.2,29.99,North,353,0.0,0.0,57,0.00,,---,0.00,VWS V14.01,2013-06-07 09:58:00,
2013-06-07 03:04:00,46.6,32.2,29.99,North,353,0.0,0.0,57,0.00,,---,0.00,VWS V14.01,2013-06-07 10:04:00,
2013-06-07 03:09:00,46.6,32.2,29.99,ESE,113,5.4,5.8,57,0.00,,---,0.00,VWS V14.01,2013-06-07 10:09:00,
2013-06-07 03:15:00,46.8,33.0,29.99,East,86,0.0,0.0,58,0.00,,---,0.00,VWS V14.01,2013-06-07 10:15:00,
2013-06-07 03:20:00,46.2,32.5,29.99,North,10,2.7,3.1,58,0.00,,---,0.00,VWS V14.01,2013-06-07 10:20:00,
2013-06-07 03:25:00,45.7,32.0,29.99,NNE,33,0.0,3.1,58,0.00,,---,0.00,VWS V14.01,2013-06-07 10:25:00,
2013-06-07 03:31:00,46.0,33.0,29.99,East,84,2.2,2.7,60,0.00,,---,0.00,VWS V14.01,2013-06-07 10:31:00,
2013-06-07 03:36:00,46.2,33.1,29.99,NW,325,0.0,0.0,60,0.00,,---,0.00,VWS V14.01,2013-06-07 10:36:00,
2013-06-07 03:42:00,45.3,32.3,29.99,NW,324,0.0,0.0,60,0.00,,---,0.00,VWS V14.01,2013-06-07 10:42:00,
2013-06-07 03:47:00,45.3,32.3,29.99,NW,324,0.0,0.0,60,0.00,,---,0.00,VWS V14.01,2013-06-07 10:47:00,
2013-06-07 03:52:00,45.5,32.4,29.99,NW,324,0.0,0.0,60,0.00,,---,0.00,VWS V14.01,2013-06-07 10:52:00,
2013-06-07 03:58:00,45.5,32.4,29.99,NW,324,0.0,0.0,60,0.00,,---,0.00,VWS V14.01,2013-06-07 10:58:00,
2013-06-07 04:03:00,45.1,32.1,29.99,NW,324,0.0,0.0,60,0.00,,---,0.00,VWS V14.01,2013-06-07 11:03:00,
2013-06-07 04:08:00,45.0,32.5,29.99,NW,324,0.0,0.0,62,0.00,,---,0.00,VWS V14.01,2013-06-07 11:08:00,
2013-06-07 04:13:00,45.1,32.7,29.99,NW,324,0.0,0.0,62,0.00,,---,0.00,VWS V14.01,2013-06-07 11:13:00,
2013-06-07 04:20:00,45.0,32.5,29.99,NW,324,0.0,0.0,62,0.00,,---,0.00,VWS V14.01,2013-06-07 11:20:00,
2013-06-07 04:25:00,45.0,32.5,29.99,NW,324,0.0,0.0,62,0.00,,---,0.00,VWS V14.01,2013-06-07 11:25:00,
2013-06-07 04:31:00,44.4,32.0,29.99,NW,324,0.0,0.0,62,0.00,,---,0.00,VWS V14.01,2013-06-07 11:31:00,
2013-06-07 04:37:00,44.1,31.7,29.99,NW,324,0.0,0.0,62,0.00,,---,0.00,VWS V14.01,2013-06-07 11:37:00,
2013-06-07 04:42:00,44.2,31.9,29.99,NW,324,0.0,0.0,62,0.00,,---,0.00,VWS V14.01,2013-06-07 11:42:00,
2013-06-07 04:48:00,44.6,32.2,29.99,SE,126,4.0,4.5,62,0.00,,---,0.00,VWS V14.01,2013-06-07 11:48:00,
2013-06-07 04:53:00,44.6,32.2,29.99,NE,50,2.2,3.1,62,0.00,,---,0.00,VWS V14.01,2013-06-07 11:53:00,
2013-06-07 04:59:00,44.1,31.7,29.99,NE,50,0.0,0.0,62,0.00,,---,0.00,VWS V14.01,2013-06-07 11:59:00,
2013-06-07 05:04:00,43.9,32.1,29.99,NE,50,0.0,0.0,63,0.00,,---,0.00,VWS V14.01,2013-06-07 12:04:00,
2013-06-07 05:10:00,43.7,32.0,29.99,NE,50,0.0,0.0,63,0.00,,---,0.00,VWS V14.01,2013-06-07 12:10:00,
2013-06-07 05:15:00,43.7,32.0,29.99,SSE,157,2.2,3.1,63,0.00,,---,0.00,VWS V14.01,2013-06-07 12:15:00,
2013-06-07 05:21:00,43.9,32.1,29.99,SSE,157,0.0,0.0,63,0.00,,---,0.00,VWS V14.01,2013-06-07 12:21:00,
2013-06-07 05:26:00,43.7,32.0,29.99,ESE,119,0.0,0.0,63,0.00,,---,0.00,VWS V14.01,2013-06-07 12:26:00,
2013-06-07 05:32:00,43.5,31.8,29.99,ESE,119,0.0,0.0,63,0.00,,---,0.00,VWS V14.01,2013-06-07 12:32:00,
2013-06-07 05:38:00,43.2,31.4,29.99,ESE,119,0.0,0.0,63,0.00,,---,0.00,VWS V14.01,2013-06-07 12:38:00,
2013-06-07 05:43:00,43.2,31.4,29.99,ESE,119,0.0,0.0,63,0.00,,---,0.00,VWS V14.01,2013-06-07 12:43:00,
2013-06-07 05:49:00,43.2,31.4,29.99,ESE,119,0.0,0.0,63,0.00,,---,0.00,VWS V14.01,2013-06-07 12:49:00,
2013-06-07 05:55:00,43.3,31.6,29.99,SE,126,0.0,0.0,63,0.00,,---,0.00,VWS V14.01,2013-06-07 12:55:00,
2013-06-07 06:01:00,43.3,31.6,29.99,SE,130,0.0,0.0,63,0.00,,---,0.00,VWS V14.01,2013-06-07 13:01:00,
2013-06-07 06:07:00,43.7,32.0,29.99,NE,45,0.0,0.0,63,0.00,,---,0.00,VWS V14.01,2013-06-07 13:07:00,
2013-06-07 06:12:00,44.1,32.3,29.99,NE,38,0.0,0.0,63,0.00,,---,0.00,VWS V14.01,2013-06-07 13:12:00,
2013-06-07 06:18:00,44.6,32.8,29.99,WSW,254,0.0,0.0,63,0.00,,---,0.00,VWS V14.01,2013-06-07 13:18:00,
2013-06-07 06:24:00,45.5,33.7,29.99,SSW,194,0.0,0.0,63,0.00,,---,0.00,VWS V14.01,2013-06-07 13:24:00,
2013-06-07 06:30:00,46.6,34.7,29.99,ESE,113,0.0,0.0,63,0.00,,---,0.00,VWS V14.01,2013-06-07 13:30:00,
2013-06-07 06:36:00,47.5,35.5,29.99,North,357,0.0,0.0,63,0.00,,---,0.00,VWS V14.01,2013-06-07 13:36:00,
2013-06-07 06:42:00,48.6,35.9,29.99,NNW,330,0.0,0.0,62,0.00,,---,0.00,VWS V14.01,2013-06-07 13:42:00,
2013-06-07 06:48:00,50.0,36.7,29.99,West,272,0.0,0.0,60,0.00,,---,0.00,VWS V14.01,2013-06-07 13:48:00,
2013-06-07 06:54:00,51.3,37.9,29.99,SSW,197,0.0,0.0,60,0.00,,---,0.00,VWS V14.01,2013-06-07 13:54:00,
2013-06-07 06:59:00,52.9,39.4,29.99,SSE,162,0.0,0.0,60,0.00,,---,0.00,VWS V14.01,2013-06-07 13:59:00,
2013-06-07 07:04:00,54.5,40.3,29.99,SW,225,0.0,0.0,58,0.00,,---,0.00,VWS V14.01,2013-06-07 14:04:00,
2013-06-07 07:10:00,56.1,41.1,29.99,SW,223,0.0,0.0,57,0.00,,---,0.00,VWS V14.01,2013-06-07 14:10:00,
2013-06-07 07:16:00,57.9,42.1,29.99,SW,223,0.0,0.0,56,0.00,,---,0.00,VWS V14.01,2013-06-07 14:16:00,
2013-06-07 07:22:00,59.5,42.9,29.99,SW,223,0.0,0.0,54,0.00,,---,0.00,VWS V14.01,2013-06-07 14:22:00,
2013-06-07 07:27:00,61.2,43.7,29.99,SW,233,0.0,0.0,52,0.00,,---,0.00,VWS V14.01,2013-06-07 14:27:00,
2013-06-07 07:33:00,62.6,44.2,29.99,WNW,298,0.0,0.0,51,0.00,,---,0.00,VWS V14.01,2013-06-07 14:33:00,
2013-06-07 07:39:00,64.4,44.3,29.99,NNW,338,0.0,0.0,48,0.00,,---,0.00,VWS V14.01,2013-06-07 14:39:00,
2013-06-07 07:44:00,65.8,43.0,29.99,NNW,338,0.0,0.0,44,0.00,,---,0.00,VWS V14.01,2013-06-07 14:44:00,
2013-06-07 07:49:00,67.5,41.7,29.99,NNW,337,0.0,0.0,39,0.00,,---,0.00,VWS V14.01,2013-06-07 14:49:00,
2013-06-07 07:55:00,69.1,41.0,29.99,NNW,339,0.0,0.0,36,0.00,,---,0.00,VWS V14.01,2013-06-07 14:55:00,
2013-06-07 08:00:00,70.5,41.2,29.99,NNW,341,0.0,0.0,34,0.00,,---,0.00,VWS V14.01,2013-06-07 15:00:00,
2013-06-07 08:05:00,72.1,41.5,29.99,NNW,327,0.0,0.0,33,0.00,,---,0.00,VWS V14.01,2013-06-07 15:05:00,
2013-06-07 08:10:00,73.8,41.7,29.99,ENE,58,0.0,0.0,32,0.00,,---,0.00,VWS V14.01,2013-06-07 15:10:00,
2013-06-07 08:17:00,75.7,42.1,29.99,East,85,0.0,0.0,30,0.00,,---,0.00,VWS V14.01,2013-06-07 15:17:00,
2013-06-07 08:22:00,77.4,40.8,29.99,South,171,0.0,0.0,27,0.00,,---,0.00,VWS V14.01,2013-06-07 15:22:00,
2013-06-07 08:28:00,78.8,37.3,29.99,SW,234,0.0,0.0,22,0.00,,---,0.00,VWS V14.01,2013-06-07 15:28:00,
2013-06-07 08:33:00,80.2,38.5,29.99,West,276,0.0,0.0,22,0.00,,---,0.00,VWS V14.01,2013-06-07 15:33:00,
2013-06-07 08:39:00,81.3,37.7,29.99,WSW,246,4.0,5.4,21,0.00,,---,0.00,VWS V14.01,2013-06-07 15:39:00,
2013-06-07 08:45:00,82.4,38.6,29.99,West,272,3.6,5.4,21,0.00,,---,0.00,VWS V14.01,2013-06-07 15:45:00,
2013-06-07 08:51:00,82.9,39.0,29.99,West,271,3.6,5.4,21,0.00,,---,0.00,VWS V14.01,2013-06-07 15:51:00,
2013-06-07 08:57:00,83.1,39.2,29.99,West,280,3.6,3.6,21,0.00,,---,0.00,VWS V14.01,2013-06-07 15:57:00,
2013-06-07 09:02:00,83.8,39.8,29.99,WSW,252,8.1,8.1,21,0.00,,---,0.00,VWS V14.01,2013-06-07 16:02:00,
2013-06-07 09:08:00,84.2,38.2,29.99,SW,234,8.3,8.3,20,0.00,,---,0.00,VWS V14.01,2013-06-07 16:08:00,
2013-06-07 09:13:00,84.4,38.3,29.99,WSW,251,9.6,10.5,20,0.00,,---,0.00,VWS V14.01,2013-06-07 16:13:00,
2013-06-07 09:19:00,82.9,39.0,29.99,WNW,297,5.4,8.1,21,0.00,,---,0.00,VWS V14.01,2013-06-07 16:19:00,
2013-06-07 09:24:00,82.8,38.9,29.99,WSW,246,7.6,7.6,21,0.00,,---,0.00,VWS V14.01,2013-06-07 16:24:00,
2013-06-07 09:30:00,83.1,39.2,29.99,West,269,10.1,10.5,21,0.00,,---,0.00,VWS V14.01,2013-06-07 16:30:00,
2013-06-07 09:36:00,83.3,39.3,29.99,SW,228,8.7,8.7,21,0.00,,---,0.00,VWS V14.01,2013-06-07 16:36:00,
2013-06-07 09:41:00,83.8,39.8,29.99,SW,222,8.3,8.3,21,0.00,,---,0.00,VWS V14.01,2013-06-07 16:41:00,
2013-06-07 09:47:00,83.5,39.5,29.99,WSW,246,11.0,11.0,21,0.00,,---,0.00,VWS V14.01,2013-06-07 16:47:00,
2013-06-07 09:52:00,84.2,38.2,29.99,WSW,237,5.8,10.5,20,0.00,,---,0.00,VWS V14.01,2013-06-07 16:52:00,
2013-06-07 09:58:00,84.4,38.3,29.99,WSW,245,8.3,11.4,20,0.00,,---,0.00,VWS V14.01,2013-06-07 16:58:00,
2013-06-07 10:04:00,84.0,39.9,29.99,WSW,245,10.5,12.3,21,0.00,,---,0.00,VWS V14.01,2013-06-07 17:04:00,
2013-06-07 10:09:00,83.7,39.6,29.99,WSW,240,8.1,12.3,21,0.00,,---,0.00,VWS V14.01,2013-06-07 17:09:00,
2013-06-07 10:15:00,83.7,39.6,29.99,WSW,250,11.0,11.0,21,0.00,,---,0.00,VWS V14.01,2013-06-07 17:15:00,
2013-06-07 10:21:00,84.2,38.2,29.99,SW,226,9.6,10.5,20,0.00,,---,0.00,VWS V14.01,2013-06-07 17:21:00,
2013-06-07 10:27:00,83.5,39.5,29.99,SW,229,8.7,8.7,21,0.00,,---,0.00,VWS V14.01,2013-06-07 17:27:00,
2013-06-07 10:33:00,84.0,39.9,29.99,SW,234,12.8,12.8,21,0.00,,---,0.00,VWS V14.01,2013-06-07 17:33:00,
2013-06-07 10:39:00,84.7,38.6,29.99,SW,217,11.0,11.9,20,0.00,,---,0.00,VWS V14.01,2013-06-07 17:39:00,
2013-06-07 10:45:00,85.1,38.9,29.99,SW,224,8.3,10.5,20,0.00,,---,0.00,VWS V14.01,2013-06-07 17:45:00,
2013-06-07 10:50:00,85.6,39.4,29.99,WSW,256,10.1,10.5,20,0.00,,---,0.00,VWS V14.01,2013-06-07 17:50:00,
2013-06-07 10:56:00,85.6,39.4,29.99,SW,234,8.7,10.1,20,0.00,,---,0.00,VWS V14.01,2013-06-07 17:56:00,
2013-06-07 11:01:00,85.3,39.1,29.99,West,259,10.5,11.9,20,0.00,,---,0.00,VWS V14.01,2013-06-07 18:01:00,
2013-06-07 11:06:00,85.8,39.5,29.99,WSW,248,8.7,10.5,20,0.00,,---,0.00,VWS V14.01,2013-06-07 18:06:00,
2013-06-07 11:11:00,86.5,40.1,29.99,West,259,8.7,8.7,20,0.00,,---,0.00,VWS V14.01,2013-06-07 18:11:00,
2013-06-07 11:17:00,85.8,39.5,29.99,WSW,247,8.1,10.1,20,0.00,,---,0.00,VWS V14.01,2013-06-07 18:17:00,
2013-06-07 11:23:00,86.2,39.8,29.99,West,268,7.6,8.3,20,0.00,,---,0.00,VWS V14.01,2013-06-07 18:23:00,
2013-06-07 11:29:00,86.0,39.7,29.99,West,261,11.9,14.1,20,0.00,,---,0.00,VWS V14.01,2013-06-07 18:29:00,
2013-06-07 11:34:00,85.6,39.4,29.99,WSW,256,11.0,11.0,20,0.00,,---,0.00,VWS V14.01,2013-06-07 18:34:00,
2013-06-07 11:39:00,86.5,40.1,29.99,SW,233,8.3,8.7,20,0.00,,---,0.00,VWS V14.01,2013-06-07 18:39:00,
2013-06-07 11:45:00,86.0,39.7,29.99,WSW,254,11.0,11.0,20,0.00,,---,0.00,VWS V14.01,2013-06-07 18:45:00,
2013-06-07 11:51:00,86.2,39.8,29.99,WSW,250,5.4,8.3,20,0.00,,---,0.00,VWS V14.01,2013-06-07 18:51:00,
2013-06-07 11:57:00,86.4,40.0,29.99,West,262,8.7,12.3,20,0.00,,---,0.00,VWS V14.01,2013-06-07 18:57:00,
2013-06-07 12:02:00,86.0,39.7,29.99,West,261,2.7,8.1,20,0.00,,---,0.00,VWS V14.01,2013-06-07 19:02:00,
2013-06-07 12:08:00,86.2,39.8,29.99,WNW,299,7.6,12.8,20,0.00,,---,0.00,VWS V14.01,2013-06-07 19:08:00,
2013-06-07 12:13:00,85.3,39.1,29.99,West,262,5.8,11.0,20,0.00,,---,0.00,VWS V14.01,2013-06-07 19:13:00,
2013-06-07 12:19:00,85.8,39.5,29.99,South,191,11.0,11.0,20,0.00,,---,0.00,VWS V14.01,2013-06-07 19:19:00,
2013-06-07 12:24:00,87.1,40.5,29.99,WNW,298,8.1,12.3,20,0.00,,---,0.00,VWS V14.01,2013-06-07 19:24:00,
2013-06-07 12:29:00,87.1,40.5,29.99,West,280,8.1,13.2,20,0.00,,---,0.00,VWS V14.01,2013-06-07 19:29:00,
2013-06-07 12:35:00,87.6,41.0,29.99,SW,230,12.8,13.2,20,0.00,,---,0.00,VWS V14.01,2013-06-07 19:35:00,
2013-06-07 12:41:00,87.4,40.8,29.99,WSW,254,8.7,8.7,20,0.00,,---,0.00,VWS V14.01,2013-06-07 19:41:00,
2013-06-07 12:46:00,87.8,41.1,29.99,West,266,7.6,8.7,20,0.00,,---,0.00,VWS V14.01,2013-06-07 19:46:00,
2013-06-07 12:52:00,88.2,41.4,29.99,NW,304,11.4,11.4,20,0.00,,---,0.00,VWS V14.01,2013-06-07 19:52:00,
2013-06-07 12:57:00,88.2,41.4,29.99,WSW,251,11.9,12.8,20,0.00,,---,0.00,VWS V14.01,2013-06-07 19:57:00,
2013-06-07 13:02:00,89.6,40.5,29.99,South,179,8.1,13.2,18,0.00,,---,0.00,VWS V14.01,2013-06-07 20:02:00,
2013-06-07 13:07:00,89.6,40.5,29.99,West,268,12.3,12.3,18,0.00,,---,0.00,VWS V14.01,2013-06-07 20:07:00,
2013-06-07 13:13:00,88.2,41.4,29.99,WSW,257,10.5,15.4,20,0.00,,---,0.00,VWS V14.01,2013-06-07 20:13:00,
2013-06-07 13:20:00,87.1,40.5,29.99,SW,222,12.8,14.1,20,0.00,,---,0.00,VWS V14.01,2013-06-07 20:20:00,
2013-06-07 13:25:00,89.1,42.2,29.99,WSW,255,10.5,15.0,20,0.00,,---,0.00,VWS V14.01,2013-06-07 20:25:00,
2013-06-07 13:30:00,89.6,40.5,29.99,SW,217,10.5,13.2,18,0.00,,---,0.00,VWS V14.01,2013-06-07 20:30:00,
2013-06-07 13:36:00,89.8,40.7,29.99,WSW,243,11.0,12.3,18,0.00,,---,0.00,VWS V14.01,2013-06-07 20:36:00,
2013-06-07 13:42:00,89.6,40.5,29.99,West,268,7.6,16.3,18,0.00,,---,0.00,VWS V14.01,2013-06-07 20:42:00,
2013-06-07 13:47:00,89.4,42.5,29.99,SW,226,12.3,15.4,20,0.00,,---,0.00,VWS V14.01,2013-06-07 20:47:00,
2013-06-07 13:52:00,90.7,41.4,29.99,WSW,257,10.5,12.3,18,0.00,,---,0.00,VWS V14.01,2013-06-07 20:52:00,
2013-06-07 13:58:00,91.0,41.7,29.99,WSW,239,12.3,16.3,18,0.00,,---,0.00,VWS V14.01,2013-06-07 20:58:00,
2013-06-07 14:03:00,90.3,41.1,29.99,SW,234,13.2,15.0,18,0.00,,---,0.00,VWS V14.01,2013-06-07 21:03:00,
2013-06-07 14:09:00,90.3,41.1,29.99,WSW,247,10.1,12.8,18,0.00,,---,0.00,VWS V14.01,2013-06-07 21:09:00,
2013-06-07 14:15:00,90.3,41.1,29.99,West,266,12.3,13.2,18,0.00,,---,0.00,VWS V14.01,2013-06-07 21:15:00,
2013-06-07 14:21:00,89.4,42.5,29.99,NW,304,11.0,13.2,20,0.00,,---,0.00,VWS V14.01,2013-06-07 21:21:00,
2013-06-07 14:26:00,89.1,42.2,29.96,West,259,11.0,15.4,20,0.00,,---,0.00,VWS V14.01,2013-06-07 21:26:00,
2013-06-07 14:32:00,88.2,41.4,29.96,West,262,8.1,10.5,20,0.00,,---,0.00,VWS V14.01,2013-06-07 21:32:00,
2013-06-07 14:38:00,88.2,41.4,29.96,NW,322,11.0,11.0,20,0.00,,---,0.00,VWS V14.01,2013-06-07 21:38:00,
2013-06-07 14:43:00,89.2,42.3,29.99,WSW,241,12.8,15.0,20,0.00,,---,0.00,VWS V14.01,2013-06-07 21:43:00,
2013-06-07 14:49:00,90.1,41.0,29.99,West,263,10.5,12.8,18,0.00,,---,0.00,VWS V14.01,2013-06-07 21:49:00,
2013-06-07 14:54:00,89.4,42.5,29.99,WSW,238,12.3,13.2,20,0.00,,---,0.00,VWS V14.01,2013-06-07 21:54:00,
2013-06-07 15:00:00,88.9,42.0,29.99,WSW,255,11.0,11.0,20,0.00,,---,0.00,VWS V14.01,2013-06-07 22:00:00,
2013-06-07 15:06:00,89.4,42.5,29.99,West,266,13.2,13.2,20,0.00,,---,0.00,VWS V14.01,2013-06-07 22:06:00,
2013-06-07 15:11:00,89.6,40.5,29.96,SW,235,11.4,15.4,18,0.00,,---,0.00,VWS V14.01,2013-06-07 22:11:00,
2013-06-07 15:17:00,90.7,41.4,29.96,SW,234,8.3,12.8,18,0.00,,---,0.00,VWS V14.01,2013-06-07 22:17:00,
2013-06-07 15:22:00,90.7,41.4,29.96,WSW,239,8.7,11.4,18,0.00,,---,0.00,VWS V14.01,2013-06-07 22:22:00,
2013-06-07 15:28:00,89.1,42.2,29.96,WSW,256,8.3,11.0,20,0.00,,---,0.00,VWS V14.01,2013-06-07 22:28:00,
2013-06-07 15:34:00,88.7,41.9,29.96,WNW,295,11.9,11.9,20,0.00,,---,0.00,VWS V14.01,2013-06-07 22:34:00,
2013-06-07 15:39:00,89.4,42.5,29.96,WSW,241,8.7,13.2,20,0.00,,---,0.00,VWS V14.01,2013-06-07 22:39:00,
2013-06-07 15:45:00,90.3,41.1,29.96,SW,222,9.6,11.0,18,0.00,,---,0.00,VWS V14.01,2013-06-07 22:45:00,
2013-06-07 15:51:00,90.0,40.8,29.96,West,262,13.6,13.6,18,0.00,,---,0.00,VWS V14.01,2013-06-07 22:51:00,
2013-06-07 15:57:00,90.3,41.1,29.96,WSW,253,11.0,12.3,18,0.00,,---,0.00,VWS V14.01,2013-06-07 22:57:00,
2013-06-07 16:03:00,90.3,41.1,29.96,WSW,247,10.1,10.5,18,0.00,,---,0.00,VWS V14.01,2013-06-07 23:03:00,
2013-06-07 16:09:00,89.4,42.5,29.96,WSW,239,10.5,13.2,20,0.00,,---,0.00,VWS V14.01,2013-06-07 23:09:00,
2013-06-07 16:15:00,90.3,41.1,29.96,SW,236,8.1,11.0,18,0.00,,---,0.00,VWS V14.01,2013-06-07 23:15:00,
2013-06-07 16:21:00,91.0,41.7,29.96,WSW,253,11.4,14.1,18,0.00,,---,0.00,VWS V14.01,2013-06-07 23:21:00,
2013-06-07 16:26:00,91.2,41.8,29.96,WSW,241,12.3,12.3,18,0.00,,---,0.00,VWS V14.01,2013-06-07 23:26:00,
2013-06-07 16:31:00,90.9,41.5,29.96,West,272,10.5,12.8,18,0.00,,---,0.00,VWS V14.01,2013-06-07 23:31:00,
2013-06-07 16:37:00,91.0,41.7,29.96,WSW,252,13.6,13.6,18,0.00,,---,0.00,VWS V14.01,2013-06-07 23:37:00,
2013-06-07 16:43:00,90.1,41.0,29.96,WSW,249,15.0,15.0,18,0.00,,---,0.00,VWS V14.01,2013-06-07 23:43:00,
2013-06-07 16:49:00,90.5,41.3,29.96,SW,234,13.2,15.4,18,0.00,,---,0.00,VWS V14.01,2013-06-07 23:49:00,
2013-06-07 16:54:00,90.5,41.3,29.96,WSW,248,11.9,11.9,18,0.00,,---,0.00,VWS V14.01,2013-06-07 23:54:00,
2013-06-07 16:59:00,90.7,41.4,29.96,WSW,241,8.3,10.1,18,0.00,,---,0.00,VWS V14.01,2013-06-07 23:59:00,
2013-06-07 17:04:00,90.1,41.0,29.96,WSW,244,8.7,10.5,18,0.00,,---,0.00,VWS V14.01,2013-06-08 00:04:00,
2013-06-07 17:09:00,90.0,40.8,29.96,WSW,253,11.0,11.9,18,0.00,,---,0.00,VWS V14.01,2013-06-08 00:09:00,
2013-06-07 17:15:00,88.9,42.0,29.96,SW,224,12.3,13.2,20,0.00,,---,0.00,VWS V14.01,2013-06-08 00:15:00,
2013-06-07 17:21:00,88.2,41.4,29.96,WSW,251,8.7,11.0,20,0.00,,---,0.00,VWS V14.01,2013-06-08 00:21:00,
2013-06-07 17:26:00,87.3,40.7,29.96,SW,223,10.1,12.3,20,0.00,,---,0.00,VWS V14.01,2013-06-08 00:26:00,
2013-06-07 17:31:00,87.6,41.0,29.96,WSW,238,11.0,11.0,20,0.00,,---,0.00,VWS V14.01,2013-06-08 00:31:00,
2013-06-07 17:37:00,88.2,41.4,29.96,WSW,249,10.1,11.0,20,0.00,,---,0.00,VWS V14.01,2013-06-08 00:37:00,
2013-06-07 17:43:00,87.6,41.0,29.96,SW,225,8.7,8.7,20,0.00,,---,0.00,VWS V14.01,2013-06-08 00:43:00,
2013-06-07 17:48:00,87.6,41.0,29.96,WSW,239,13.2,13.2,20,0.00,,---,0.00,VWS V14.01,2013-06-08 00:48:00,
2013-06-07 17:53:00,87.4,40.8,29.96,WSW,249,6.3,10.5,20,0.00,,---,0.00,VWS V14.01,2013-06-08 00:53:00,
2013-06-07 17:58:00,87.6,41.0,29.96,WSW,244,5.8,8.1,20,0.00,,---,0.00,VWS V14.01,2013-06-08 00:58:00,
2013-06-07 18:04:00,86.9,40.4,29.96,SW,229,6.3,8.7,20,0.00,,---,0.00,VWS V14.01,2013-06-08 01:04:00,
2013-06-07 18:10:00,86.0,39.7,29.96,WSW,248,7.6,10.1,20,0.00,,---,0.00,VWS V14.01,2013-06-08 01:10:00,
2013-06-07 18:16:00,84.9,38.8,29.96,WSW,241,6.3,8.3,20,0.00,,---,0.00,VWS V14.01,2013-06-08 01:16:00,
2013-06-07 18:22:00,85.6,39.4,29.96,West,265,7.6,9.2,20,0.00,,---,0.00,VWS V14.01,2013-06-08 01:22:00,
2013-06-07 18:27:00,84.9,38.8,29.96,West,264,6.3,8.7,20,0.00,,---,0.00,VWS V14.01,2013-06-08 01:27:00,
2013-06-07 18:32:00,84.6,38.5,29.96,SW,230,7.6,7.6,20,0.00,,---,0.00,VWS V14.01,2013-06-08 01:32:00,
2013-06-07 18:38:00,84.7,38.6,29.96,WSW,258,7.2,8.1,20,0.00,,---,0.00,VWS V14.01,2013-06-08 01:38:00,
2013-06-07 18:43:00,84.0,39.9,29.96,WSW,258,7.6,8.1,21,0.00,,---,0.00,VWS V14.01,2013-06-08 01:43:00,
2013-06-07 18:49:00,82.8,38.9,29.96,SW,228,3.6,6.7,21,0.00,,---,0.00,VWS V14.01,2013-06-08 01:49:00,
2013-06-07 18:55:00,82.6,38.7,29.96,SW,235,4.0,4.9,21,0.00,,---,0.00,VWS V14.01,2013-06-08 01:55:00,
2013-06-07 19:01:00,82.6,38.7,29.96,WSW,254,3.1,4.9,21,0.00,,---,0.00,VWS V14.01,2013-06-08 02:01:00,
2013-06-07 19:07:00,81.9,38.1,29.96,WSW,248,5.4,6.3,21,0.00,,---,0.00,VWS V14.01,2013-06-08 02:07:00,
2013-06-07 19:13:00,80.8,37.2,29.96,SW,234,5.8,7.6,21,0.00,,---,0.00,VWS V14.01,2013-06-08 02:13:00,
2013-06-07 19:19:00,80.1,38.4,29.96,SW,234,5.8,5.8,22,0.00,,---,0.00,VWS V14.01,2013-06-08 02:19:00,
2013-06-07 19:25:00,80.1,38.4,29.96,SW,226,0.0,3.6,22,0.00,,---,0.00,VWS V14.01,2013-06-08 02:25:00,
2013-06-07 19:30:00,79.5,38.0,29.96,West,281,2.7,2.7,22,0.00,,---,0.00,VWS V14.01,2013-06-08 02:30:00,
2013-06-07 19:35:00,78.1,36.8,29.96,WNW,289,2.7,3.1,22,0.00,,---,0.00,VWS V14.01,2013-06-08 02:35:00,
2013-06-07 19:41:00,77.0,40.5,29.96,WSW,246,3.6,3.6,27,0.00,,---,0.00,VWS V14.01,2013-06-08 02:41:00,
2013-06-07 19:47:00,77.0,40.5,29.96,WSW,237,0.0,0.0,27,0.00,,---,0.00,VWS V14.01,2013-06-08 02:47:00,
2013-06-07 19:53:00,76.8,40.3,29.96,SSW,194,3.1,3.6,27,0.00,,---,0.00,VWS V14.01,2013-06-08 02:53:00,
2013-06-07 19:59:00,75.9,39.6,29.96,SSW,203,3.6,4.0,27,0.00,,---,0.00,VWS V14.01,2013-06-08 02:59:00,
2013-06-07 20:05:00,75.2,39.0,29.96,SSW,197,0.0,0.0,27,0.00,,---,0.00,VWS V14.01,2013-06-08 03:05:00,
2013-06-07 20:11:00,74.7,38.5,29.96,SSW,197,0.0,0.0,27,0.00,,---,0.00,VWS V14.01,2013-06-08 03:11:00,
2013-06-07 20:17:00,74.3,42.2,29.96,WSW,258,0.0,0.0,32,0.00,,---,0.00,VWS V14.01,2013-06-08 03:17:00,
2013-06-07 20:22:00,72.5,40.6,29.96,WNW,282,0.0,0.0,32,0.00,,---,0.00,VWS V14.01,2013-06-08 03:22:00,
2013-06-07 20:28:00,71.6,39.8,29.96,WNW,282,0.0,0.0,32,0.00,,---,0.00,VWS V14.01,2013-06-08 03:28:00,
2013-06-07 20:34:00,71.1,40.5,29.96,WNW,288,3.6,3.6,33,0.00,,---,0.00,VWS V14.01,2013-06-08 03:34:00,
2013-06-07 20:40:00,70.3,39.9,29.96,WNW,290,0.0,0.0,33,0.00,,---,0.00,VWS V14.01,2013-06-08 03:40:00,
2013-06-07 20:45:00,69.8,39.4,29.96,ESE,113,0.0,0.0,33,0.00,,---,0.00,VWS V14.01,2013-06-08 03:45:00,
2013-06-07 20:51:00,69.6,40.4,29.96,ESE,108,0.0,2.2,34,0.00,,---,0.00,VWS V14.01,2013-06-08 03:51:00,
2013-06-07 20:57:00,68.5,39.5,29.99,NE,36,3.1,4.0,34,0.00,,---,0.00,VWS V14.01,2013-06-08 03:57:00,
2013-06-07 21:01:00,67.8,38.8,29.99,ENE,68,4.0,5.4,34,0.00,,---,0.00,VWS V14.01,2013-06-08 04:01:00,
2013-06-07 21:02:00,67.6,38.7,29.99,ENE,68,4.9,5.4,34,0.00,,---,0.00,VWS V14.01,2013-06-08 04:02:00,
2013-06-07 21:03:00,67.6,38.7,29.99,ENE,64,4.0,4.9,34,0.00,,---,0.00,VWS V14.01,2013-06-08 04:03:00,
2013-06-07 21:04:00,67.6,38.7,29.99,NE,54,5.4,5.4,34,0.00,,---,0.00,VWS V14.01,2013-06-08 04:04:00,
2013-06-07 21:10:00,67.3,38.3,29.99,NE,42,0.0,0.0,34,0.00,,---,0.00,VWS V14.01,2013-06-08 04:10:00,
2013-06-07 21:15:00,66.9,38.0,29.99,NE,43,0.0,0.0,34,0.00,,---,0.00,VWS V14.01,2013-06-08 04:15:00,
2013-06-07 21:21:00,66.7,37.9,29.99,SE,124,0.0,0.0,34,0.00,,---,0.00,VWS V14.01,2013-06-08 04:21:00,
2013-06-07 21:26:00,66.6,38.8,29.99,North,9,0.0,0.0,36,0.00,,---,0.00,VWS V14.01,2013-06-08 04:26:00,
2013-06-07 21:32:00,65.5,37.8,29.99,NNW,345,0.0,0.0,36,0.00,,---,0.00,VWS V14.01,2013-06-08 04:32:00,
2013-06-07 21:38:00,63.9,36.4,29.99,NNW,345,0.0,0.0,36,0.00,,---,0.00,VWS V14.01,2013-06-08 04:38:00,
2013-06-07 21:43:00,63.9,36.4,29.99,NNW,345,0.0,0.0,36,0.00,,---,0.00,VWS V14.01,2013-06-08 04:43:00,
2013-06-07 21:49:00,63.9,37.5,29.99,NNW,345,0.0,0.0,38,0.00,,---,0.00,VWS V14.01,2013-06-08 04:49:00,
2013-06-07 21:54:00,63.9,37.5,29.99,East,100,0.0,0.0,38,0.00,,---,0.00,VWS V14.01,2013-06-08 04:54:00,
2013-06-07 22:00:00,63.5,37.1,29.99,SE,127,0.0,2.2,38,0.00,,---,0.00,VWS V14.01,2013-06-08 05:00:00,
2013-06-07 22:06:00,63.1,36.8,29.99,SE,129,3.1,3.6,38,0.00,,---,0.00,VWS V14.01,2013-06-08 05:06:00,
2013-06-07 22:12:00,62.8,36.5,29.99,SE,145,0.0,0.0,38,0.00,,---,0.00,VWS V14.01,2013-06-08 05:12:00,
2013-06-07 22:18:00,62.4,36.2,29.99,NE,45,0.0,0.0,38,0.00,,---,0.00,VWS V14.01,2013-06-08 05:18:00,
2013-06-07 22:24:00,61.3,35.2,29.99,NE,45,0.0,0.0,38,0.00,,---,0.00,VWS V14.01,2013-06-08 05:24:00,
2013-06-07 22:29:00,61.2,36.0,29.99,NE,45,0.0,0.0,39,0.00,,---,0.00,VWS V14.01,2013-06-08 05:29:00,
2013-06-07 22:35:00,60.6,35.5,29.99,NE,45,0.0,0.0,39,0.00,,---,0.00,VWS V14.01,2013-06-08 05:35:00,
2013-06-07 22:40:00,60.4,35.4,29.99,SE,139,0.0,0.0,39,0.00,,---,0.00,VWS V14.01,2013-06-08 05:40:00,
2013-06-07 22:45:00,60.4,36.3,29.99,East,101,0.0,0.0,40,0.00,,---,0.00,VWS V14.01,2013-06-08 05:45:00,
2013-06-07 22:51:00,59.9,35.8,29.99,ENE,60,0.0,0.0,40,0.00,,---,0.00,VWS V14.01,2013-06-08 05:51:00,
2013-06-07 22:56:00,59.2,35.2,29.99,NNE,27,0.0,0.0,40,0.00,,---,0.00,VWS V14.01,2013-06-08 05:56:00,
2013-06-07 23:02:00,58.6,35.6,29.99,NE,42,0.0,0.0,42,0.00,,---,0.00,VWS V14.01,2013-06-08 06:02:00,
2013-06-07 23:08:00,58.5,35.5,29.99,ENE,73,0.0,0.0,42,0.00,,---,0.00,VWS V14.01,2013-06-08 06:08:00,
2013-06-07 23:14:00,58.5,35.5,29.99,SSE,158,2.2,3.1,42,0.00,,---,0.00,VWS V14.01,2013-06-08 06:14:00,
2013-06-07 23:19:00,58.3,35.3,29.99,East,86,4.0,4.0,42,0.00,,---,0.00,VWS V14.01,2013-06-08 06:19:00,
2013-06-07 23:24:00,58.3,36.2,29.99,ENE,69,3.6,4.0,44,0.00,,---,0.00,VWS V14.01,2013-06-08 06:24:00,
2013-06-07 23:30:00,57.9,35.9,29.99,NE,39,2.7,4.0,44,0.00,,---,0.00,VWS V14.01,2013-06-08 06:30:00,
2013-06-07 23:36:00,57.6,35.5,29.99,ENE,57,4.9,5.8,44,0.00,,---,0.00,VWS V14.01,2013-06-08 06:36:00,
2013-06-07 23:41:00,57.6,35.5,29.99,ENE,70,0.0,2.7,44,0.00,,---,0.00,VWS V14.01,2013-06-08 06:41:00,
2013-06-07 23:47:00,57.2,35.2,29.99,ENE,70,0.0,0.0,44,0.00,,---,0.00,VWS V14.01,2013-06-08 06:47:00,
2013-06-07 23:53:00,57.2,35.2,29.99,ENE,70,0.0,0.0,44,0.00,,---,0.00,VWS V14.01,2013-06-08 06:53:00,
2013-06-07 23:58:00,57.2,35.2,29.99,ENE,70,0.0,0.0,44,0.00,,---,0.00,VWS V14.01,2013-06-08 06:58:00,